Weather at Pekin Municipal Airport

Public forecast

Using degrees Fahrenheit for public forecast. Weather courtesy of forecast.io.

Closest aviation weather report (METAR) to Pekin Municipal Airport

Closest report is General Wayne A. Downing Peoria International Airport, 10.6 nm (19.6 km) N. Retrieved 2020/10/20 03:54 UTC (53 minutes ago):

KPIA 200354Z 04006KT 10SM OVC034 05/02 A3021 RMK AO2 SLP235 T00500017

Closest aviation forecast (TAF) to Pekin Municipal Airport

Closest forecast is General Wayne A. Downing Peoria International Airport, 10.6 nm (19.6 km) N. Retrieved 2020-10-20 00:24 UTC (4 hours ago):

TAF KPIA 192322Z 2000/2024 03008KT P6SM FEW010 OVC040 FM201300 08008KT P6SM BKN040 FM201900 12010KT P6SM BKN040 FM202200 13012KT P6SM SCT007 BKN012